sensor_id;sensor_type;location;lat;lon;timestamp;P1;durP1;ratioP1;P2;durP2;ratioP2
18689;SDS011;9782;52.930;15.562;2023-01-20T00:01:19;43.40;;;21.00;;
18689;SDS011;9782;52.930;15.562;2023-01-20T00:03:47;39.73;;;21.67;;
18689;SDS011;9782;52.930;15.562;2023-01-20T00:06:14;39.87;;;21.27;;
18689;SDS011;9782;52.930;15.562;2023-01-20T00:08:41;40.03;;;19.47;;
18689;SDS011;9782;52.930;15.562;2023-01-20T00:11:09;38.53;;;20.83;;
18689;SDS011;9782;52.930;15.562;2023-01-20T00:13:37;33.83;;;19.33;;
18689;SDS011;9782;52.930;15.562;2023-01-20T00:16:05;35.83;;;19.07;;
18689;SDS011;9782;52.930;15.562;2023-01-20T00:18:35;40.20;;;20.20;;
18689;SDS011;9782;52.930;15.562;2023-01-20T00:21:02;37.23;;;19.23;;
18689;SDS011;9782;52.930;15.562;2023-01-20T00:23:30;35.00;;;18.73;;
18689;SDS011;9782;52.930;15.562;2023-01-20T00:25:57;40.40;;;20.30;;
18689;SDS011;9782;52.930;15.562;2023-01-20T00:28:24;38.60;;;19.70;;
18689;SDS011;9782;52.930;15.562;2023-01-20T00:30:51;38.13;;;19.37;;
18689;SDS011;9782;52.930;15.562;2023-01-20T00:33:17;41.13;;;20.90;;
18689;SDS011;9782;52.930;15.562;2023-01-20T00:35:46;36.43;;;20.37;;
18689;SDS011;9782;52.930;15.562;2023-01-20T00:38:12;32.87;;;19.63;;
18689;SDS011;9782;52.930;15.562;2023-01-20T00:40:39;44.70;;;22.43;;
18689;SDS011;9782;52.930;15.562;2023-01-20T00:43:06;46.20;;;23.70;;
18689;SDS011;9782;52.930;15.562;2023-01-20T00:45:33;46.87;;;23.23;;
18689;SDS011;9782;52.930;15.562;2023-01-20T00:48:00;40.37;;;20.70;;
18689;SDS011;9782;52.930;15.562;2023-01-20T00:50:27;33.63;;;19.20;;
18689;SDS011;9782;52.930;15.562;2023-01-20T00:52:55;44.57;;;22.67;;
18689;SDS011;9782;52.930;15.562;2023-01-20T00:55:21;41.57;;;23.23;;
18689;SDS011;9782;52.930;15.562;2023-01-20T00:57:48;44.50;;;23.50;;
18689;SDS011;9782;52.930;15.562;2023-01-20T01:00:16;38.80;;;20.87;;
18689;SDS011;9782;52.930;15.562;2023-01-20T01:02:44;39.70;;;22.37;;
18689;SDS011;9782;52.930;15.562;2023-01-20T01:05:10;40.30;;;21.00;;
18689;SDS011;9782;52.930;15.562;2023-01-20T01:07:37;39.20;;;21.97;;
18689;SDS011;9782;52.930;15.562;2023-01-20T01:10:06;38.03;;;21.47;;
18689;SDS011;9782;52.930;15.562;2023-01-20T01:12:33;41.63;;;22.47;;
18689;SDS011;9782;52.930;15.562;2023-01-20T01:15:00;40.63;;;23.23;;
18689;SDS011;9782;52.930;15.562;2023-01-20T01:17:27;39.53;;;22.03;;
18689;SDS011;9782;52.930;15.562;2023-01-20T01:19:54;35.77;;;21.37;;
18689;SDS011;9782;52.930;15.562;2023-01-20T01:22:21;48.87;;;23.20;;
18689;SDS011;9782;52.930;15.562;2023-01-20T01:24:48;42.23;;;22.33;;
18689;SDS011;9782;52.930;15.562;2023-01-20T01:27:16;43.57;;;22.17;;
18689;SDS011;9782;52.930;15.562;2023-01-20T01:29:42;42.63;;;21.67;;
18689;SDS011;9782;52.930;15.562;2023-01-20T01:32:09;42.70;;;22.17;;
18689;SDS011;9782;52.930;15.562;2023-01-20T01:34:36;43.00;;;23.43;;
18689;SDS011;9782;52.930;15.562;2023-01-20T01:37:03;44.43;;;23.30;;
18689;SDS011;9782;52.930;15.562;2023-01-20T01:39:30;46.47;;;25.37;;
18689;SDS011;9782;52.930;15.562;2023-01-20T01:41:56;49.27;;;25.83;;
18689;SDS011;9782;52.930;15.562;2023-01-20T01:44:25;49.47;;;26.80;;
18689;SDS011;9782;52.930;15.562;2023-01-20T01:46:52;45.20;;;24.43;;
18689;SDS011;9782;52.930;15.562;2023-01-20T01:49:19;52.97;;;26.77;;
18689;SDS011;9782;52.930;15.562;2023-01-20T01:51:50;47.53;;;23.67;;
18689;SDS011;9782;52.930;15.562;2023-01-20T01:54:22;47.33;;;24.50;;
18689;SDS011;9782;52.930;15.562;2023-01-20T01:56:52;47.87;;;25.27;;
18689;SDS011;9782;52.930;15.562;2023-01-20T01:59:19;44.80;;;24.47;;
18689;SDS011;9782;52.930;15.562;2023-01-20T02:01:49;44.83;;;23.17;;
18689;SDS011;9782;52.930;15.562;2023-01-20T02:04:17;43.40;;;23.43;;
18689;SDS011;9782;52.930;15.562;2023-01-20T02:06:47;45.47;;;23.17;;
18689;SDS011;9782;52.930;15.562;2023-01-20T02:09:16;42.13;;;22.00;;
18689;SDS011;9782;52.930;15.562;2023-01-20T02:11:44;46.70;;;22.70;;
18689;SDS011;9782;52.930;15.562;2023-01-20T02:14:14;41.90;;;22.70;;
18689;SDS011;9782;52.930;15.562;2023-01-20T02:16:46;45.30;;;24.10;;
18689;SDS011;9782;52.930;15.562;2023-01-20T02:22:35;44.13;;;23.33;;
18689;SDS011;9782;52.930;15.562;2023-01-20T02:28:26;43.10;;;22.27;;
18689;SDS011;9782;52.930;15.562;2023-01-20T02:31:24;46.17;;;23.23;;
18689;SDS011;9782;52.930;15.562;2023-01-20T02:34:10;42.60;;;23.87;;
18689;SDS011;9782;52.930;15.562;2023-01-20T02:36:42;45.37;;;24.27;;
18689;SDS011;9782;52.930;15.562;2023-01-20T02:39:14;47.60;;;24.53;;
18689;SDS011;9782;52.930;15.562;2023-01-20T02:41:48;41.40;;;22.93;;
18689;SDS011;9782;52.930;15.562;2023-01-20T02:44:21;43.77;;;22.77;;
18689;SDS011;9782;52.930;15.562;2023-01-20T02:46:55;43.10;;;23.13;;
18689;SDS011;9782;52.930;15.562;2023-01-20T02:49:26;42.60;;;22.43;;
18689;SDS011;9782;52.930;15.562;2023-01-20T02:51:57;51.47;;;23.73;;
18689;SDS011;9782;52.930;15.562;2023-01-20T02:54:29;40.80;;;21.87;;
18689;SDS011;9782;52.930;15.562;2023-01-20T02:56:59;48.37;;;24.43;;
18689;SDS011;9782;52.930;15.562;2023-01-20T02:59:27;44.33;;;23.20;;
18689;SDS011;9782;52.930;15.562;2023-01-20T03:02:00;41.20;;;22.73;;
18689;SDS011;9782;52.930;15.562;2023-01-20T03:04:30;43.90;;;22.33;;
18689;SDS011;9782;52.930;15.562;2023-01-20T03:07:01;44.00;;;22.97;;
18689;SDS011;9782;52.930;15.562;2023-01-20T03:09:30;45.37;;;23.53;;
18689;SDS011;9782;52.930;15.562;2023-01-20T03:12:06;53.17;;;26.13;;
18689;SDS011;9782;52.930;15.562;2023-01-20T03:14:37;47.70;;;23.73;;
18689;SDS011;9782;52.930;15.562;2023-01-20T03:17:05;47.43;;;27.33;;
18689;SDS011;9782;52.930;15.562;2023-01-20T03:19:32;48.00;;;25.60;;
18689;SDS011;9782;52.930;15.562;2023-01-20T03:21:58;53.93;;;27.30;;
18689;SDS011;9782;52.930;15.562;2023-01-20T03:24:25;46.43;;;24.77;;
18689;SDS011;9782;52.930;15.562;2023-01-20T03:26:57;47.70;;;24.37;;
18689;SDS011;9782;52.930;15.562;2023-01-20T03:29:24;54.77;;;26.20;;
18689;SDS011;9782;52.930;15.562;2023-01-20T03:31:51;50.57;;;25.63;;
18689;SDS011;9782;52.930;15.562;2023-01-20T03:34:24;42.90;;;23.37;;
18689;SDS011;9782;52.930;15.562;2023-01-20T03:36:52;46.07;;;24.30;;
18689;SDS011;9782;52.930;15.562;2023-01-20T03:39:19;46.27;;;23.83;;
18689;SDS011;9782;52.930;15.562;2023-01-20T03:41:51;44.10;;;23.53;;
18689;SDS011;9782;52.930;15.562;2023-01-20T03:44:26;39.10;;;22.17;;
18689;SDS011;9782;52.930;15.562;2023-01-20T03:47:07;44.07;;;22.87;;
18689;SDS011;9782;52.930;15.562;2023-01-20T03:49:44;42.10;;;23.00;;
18689;SDS011;9782;52.930;15.562;2023-01-20T03:52:17;44.47;;;24.00;;
18689;SDS011;9782;52.930;15.562;2023-01-20T03:54:49;46.73;;;24.67;;
18689;SDS011;9782;52.930;15.562;2023-01-20T03:57:20;46.97;;;24.03;;
18689;SDS011;9782;52.930;15.562;2023-01-20T03:59:51;48.00;;;23.87;;
18689;SDS011;9782;52.930;15.562;2023-01-20T04:02:18;47.40;;;25.27;;
18689;SDS011;9782;52.930;15.562;2023-01-20T04:04:48;44.33;;;24.40;;
18689;SDS011;9782;52.930;15.562;2023-01-20T04:07:17;47.53;;;24.03;;
18689;SDS011;9782;52.930;15.562;2023-01-20T04:09:47;43.90;;;23.77;;
18689;SDS011;9782;52.930;15.562;2023-01-20T04:12:17;40.77;;;22.60;;
18689;SDS011;9782;52.930;15.562;2023-01-20T04:14:44;41.10;;;22.47;;
18689;SDS011;9782;52.930;15.562;2023-01-20T04:17:10;44.53;;;24.17;;
18689;SDS011;9782;52.930;15.562;2023-01-20T04:19:38;54.10;;;28.10;;
18689;SDS011;9782;52.930;15.562;2023-01-20T04:22:07;63.83;;;32.83;;
18689;SDS011;9782;52.930;15.562;2023-01-20T04:24:43;49.73;;;27.67;;
18689;SDS011;9782;52.930;15.562;2023-01-20T04:27:15;43.37;;;25.53;;
18689;SDS011;9782;52.930;15.562;2023-01-20T04:29:42;44.70;;;22.90;;
18689;SDS011;9782;52.930;15.562;2023-01-20T04:32:09;46.20;;;23.73;;
18689;SDS011;9782;52.930;15.562;2023-01-20T04:34:37;45.73;;;22.63;;
18689;SDS011;9782;52.930;15.562;2023-01-20T04:37:04;42.10;;;22.90;;
18689;SDS011;9782;52.930;15.562;2023-01-20T04:39:32;39.73;;;22.07;;
18689;SDS011;9782;52.930;15.562;2023-01-20T04:41:59;39.93;;;21.53;;
18689;SDS011;9782;52.930;15.562;2023-01-20T04:44:25;39.80;;;21.17;;
18689;SDS011;9782;52.930;15.562;2023-01-20T04:46:54;41.13;;;22.67;;
18689;SDS011;9782;52.930;15.562;2023-01-20T04:49:22;47.10;;;27.70;;
18689;SDS011;9782;52.930;15.562;2023-01-20T04:51:48;72.63;;;38.87;;
18689;SDS011;9782;52.930;15.562;2023-01-20T04:54:15;54.20;;;32.17;;
18689;SDS011;9782;52.930;15.562;2023-01-20T04:56:43;58.13;;;32.10;;
18689;SDS011;9782;52.930;15.562;2023-01-20T04:59:10;54.17;;;29.43;;
18689;SDS011;9782;52.930;15.562;2023-01-20T05:01:37;42.07;;;23.30;;
18689;SDS011;9782;52.930;15.562;2023-01-20T05:04:04;44.37;;;24.90;;
18689;SDS011;9782;52.930;15.562;2023-01-20T05:06:31;43.57;;;24.23;;
18689;SDS011;9782;52.930;15.562;2023-01-20T05:08:58;44.17;;;24.73;;
18689;SDS011;9782;52.930;15.562;2023-01-20T05:11:24;44.73;;;24.70;;
18689;SDS011;9782;52.930;15.562;2023-01-20T05:13:53;42.50;;;24.43;;
18689;SDS011;9782;52.930;15.562;2023-01-20T05:16:19;42.63;;;24.17;;
18689;SDS011;9782;52.930;15.562;2023-01-20T05:18:49;39.43;;;22.20;;
18689;SDS011;9782;52.930;15.562;2023-01-20T05:21:16;53.10;;;26.40;;
18689;SDS011;9782;52.930;15.562;2023-01-20T05:23:43;38.17;;;21.50;;
18689;SDS011;9782;52.930;15.562;2023-01-20T05:26:10;45.10;;;22.97;;
18689;SDS011;9782;52.930;15.562;2023-01-20T05:28:37;46.03;;;23.50;;
18689;SDS011;9782;52.930;15.562;2023-01-20T05:31:05;44.93;;;22.57;;
18689;SDS011;9782;52.930;15.562;2023-01-20T05:33:32;43.30;;;21.77;;
18689;SDS011;9782;52.930;15.562;2023-01-20T05:35:59;50.40;;;23.83;;
18689;SDS011;9782;52.930;15.562;2023-01-20T05:38:30;42.27;;;21.80;;
18689;SDS011;9782;52.930;15.562;2023-01-20T05:40:59;42.97;;;22.10;;
18689;SDS011;9782;52.930;15.562;2023-01-20T05:43:26;56.27;;;25.67;;
18689;SDS011;9782;52.930;15.562;2023-01-20T05:45:53;54.83;;;26.90;;
18689;SDS011;9782;52.930;15.562;2023-01-20T05:48:22;58.93;;;28.77;;
18689;SDS011;9782;52.930;15.562;2023-01-20T05:50:49;59.60;;;29.07;;
18689;SDS011;9782;52.930;15.562;2023-01-20T05:53:16;60.97;;;30.27;;
18689;SDS011;9782;52.930;15.562;2023-01-20T05:55:43;67.57;;;33.27;;
18689;SDS011;9782;52.930;15.562;2023-01-20T05:58:10;80.43;;;40.03;;
18689;SDS011;9782;52.930;15.562;2023-01-20T06:00:37;79.40;;;38.03;;
18689;SDS011;9782;52.930;15.562;2023-01-20T06:03:04;61.30;;;29.90;;
18689;SDS011;9782;52.930;15.562;2023-01-20T06:05:32;62.23;;;31.53;;
18689;SDS011;9782;52.930;15.562;2023-01-20T06:07:59;81.00;;;37.87;;
18689;SDS011;9782;52.930;15.562;2023-01-20T06:10:26;91.17;;;41.17;;
18689;SDS011;9782;52.930;15.562;2023-01-20T06:12:53;76.23;;;33.97;;
18689;SDS011;9782;52.930;15.562;2023-01-20T06:15:20;59.37;;;30.07;;
18689;SDS011;9782;52.930;15.562;2023-01-20T06:17:48;64.70;;;32.13;;
18689;SDS011;9782;52.930;15.562;2023-01-20T06:20:15;63.40;;;30.20;;
18689;SDS011;9782;52.930;15.562;2023-01-20T06:22:43;51.93;;;25.50;;
18689;SDS011;9782;52.930;15.562;2023-01-20T06:25:10;49.40;;;25.23;;
18689;SDS011;9782;52.930;15.562;2023-01-20T06:27:37;46.13;;;24.27;;
18689;SDS011;9782;52.930;15.562;2023-01-20T06:30:04;48.23;;;23.60;;
18689;SDS011;9782;52.930;15.562;2023-01-20T06:32:32;43.97;;;24.80;;
18689;SDS011;9782;52.930;15.562;2023-01-20T06:34:59;45.97;;;24.27;;
18689;SDS011;9782;52.930;15.562;2023-01-20T06:37:26;46.47;;;24.57;;
18689;SDS011;9782;52.930;15.562;2023-01-20T06:39:54;51.53;;;26.67;;
18689;SDS011;9782;52.930;15.562;2023-01-20T06:42:21;59.27;;;29.77;;
18689;SDS011;9782;52.930;15.562;2023-01-20T06:44:47;55.80;;;26.83;;
18689;SDS011;9782;52.930;15.562;2023-01-20T06:47:14;65.30;;;30.13;;
18689;SDS011;9782;52.930;15.562;2023-01-20T06:49:41;62.67;;;31.27;;
18689;SDS011;9782;52.930;15.562;2023-01-20T06:52:08;59.60;;;29.47;;
18689;SDS011;9782;52.930;15.562;2023-01-20T06:54:34;55.37;;;26.93;;
18689;SDS011;9782;52.930;15.562;2023-01-20T06:57:03;55.60;;;30.67;;
18689;SDS011;9782;52.930;15.562;2023-01-20T06:59:29;57.33;;;32.07;;
18689;SDS011;9782;52.930;15.562;2023-01-20T07:01:56;54.10;;;29.30;;
18689;SDS011;9782;52.930;15.562;2023-01-20T07:04:23;58.10;;;30.03;;
18689;SDS011;9782;52.930;15.562;2023-01-20T07:06:50;52.13;;;27.77;;
18689;SDS011;9782;52.930;15.562;2023-01-20T07:09:16;52.87;;;27.60;;
18689;SDS011;9782;52.930;15.562;2023-01-20T07:11:43;69.97;;;36.67;;
18689;SDS011;9782;52.930;15.562;2023-01-20T07:14:11;70.20;;;34.10;;
18689;SDS011;9782;52.930;15.562;2023-01-20T07:16:38;58.70;;;30.70;;
18689;SDS011;9782;52.930;15.562;2023-01-20T07:19:05;55.43;;;27.03;;
18689;SDS011;9782;52.930;15.562;2023-01-20T07:21:32;63.40;;;22.87;;
18689;SDS011;9782;52.930;15.562;2023-01-20T07:23:59;49.73;;;20.70;;
18689;SDS011;9782;52.930;15.562;2023-01-20T07:26:26;46.50;;;20.80;;
18689;SDS011;9782;52.930;15.562;2023-01-20T07:28:53;55.03;;;20.33;;
18689;SDS011;9782;52.930;15.562;2023-01-20T07:31:21;67.57;;;20.73;;
18689;SDS011;9782;52.930;15.562;2023-01-20T07:33:50;52.57;;;19.70;;
18689;SDS011;9782;52.930;15.562;2023-01-20T07:36:17;40.63;;;17.40;;
18689;SDS011;9782;52.930;15.562;2023-01-20T07:38:45;47.50;;;16.63;;
18689;SDS011;9782;52.930;15.562;2023-01-20T07:41:13;55.87;;;16.70;;
18689;SDS011;9782;52.930;15.562;2023-01-20T07:43:40;54.70;;;18.53;;
18689;SDS011;9782;52.930;15.562;2023-01-20T07:46:07;61.07;;;17.47;;
18689;SDS011;9782;52.930;15.562;2023-01-20T07:48:36;66.07;;;15.53;;
18689;SDS011;9782;52.930;15.562;2023-01-20T07:51:03;60.23;;;18.43;;
18689;SDS011;9782;52.930;15.562;2023-01-20T07:53:33;54.47;;;20.43;;
18689;SDS011;9782;52.930;15.562;2023-01-20T07:56:01;57.70;;;17.47;;
18689;SDS011;9782;52.930;15.562;2023-01-20T07:58:29;71.27;;;19.43;;
18689;SDS011;9782;52.930;15.562;2023-01-20T08:00:56;58.13;;;22.67;;
18689;SDS011;9782;52.930;15.562;2023-01-20T08:03:23;47.10;;;13.20;;
18689;SDS011;9782;52.930;15.562;2023-01-20T08:05:52;150.13;;;28.77;;
18689;SDS011;9782;52.930;15.562;2023-01-20T08:08:18;227.53;;;35.17;;
18689;SDS011;9782;52.930;15.562;2023-01-20T08:10:45;149.67;;;36.37;;
18689;SDS011;9782;52.930;15.562;2023-01-20T08:13:18;164.27;;;35.10;;
18689;SDS011;9782;52.930;15.562;2023-01-20T08:15:45;163.40;;;28.03;;
18689;SDS011;9782;52.930;15.562;2023-01-20T08:18:12;149.50;;;26.87;;
18689;SDS011;9782;52.930;15.562;2023-01-20T08:20:39;199.70;;;61.80;;
18689;SDS011;9782;52.930;15.562;2023-01-20T08:23:08;86.83;;;18.23;;
18689;SDS011;9782;52.930;15.562;2023-01-20T08:25:35;83.23;;;21.77;;
18689;SDS011;9782;52.930;15.562;2023-01-20T08:28:02;77.50;;;11.53;;
18689;SDS011;9782;52.930;15.562;2023-01-20T08:30:29;110.40;;;23.73;;
18689;SDS011;9782;52.930;15.562;2023-01-20T08:32:55;157.37;;;16.03;;
18689;SDS011;9782;52.930;15.562;2023-01-20T08:35:22;81.60;;;15.73;;
18689;SDS011;9782;52.930;15.562;2023-01-20T08:37:49;66.40;;;17.83;;
18689;SDS011;9782;52.930;15.562;2023-01-20T08:40:17;103.23;;;20.00;;
18689;SDS011;9782;52.930;15.562;2023-01-20T08:42:44;138.00;;;21.73;;
18689;SDS011;9782;52.930;15.562;2023-01-20T08:45:11;106.87;;;14.87;;
18689;SDS011;9782;52.930;15.562;2023-01-20T08:47:40;123.93;;;23.47;;
18689;SDS011;9782;52.930;15.562;2023-01-20T08:50:10;256.90;;;68.67;;
18689;SDS011;9782;52.930;15.562;2023-01-20T08:52:39;160.30;;;29.27;;
18689;SDS011;9782;52.930;15.562;2023-01-20T08:55:06;97.77;;;17.83;;
18689;SDS011;9782;52.930;15.562;2023-01-20T08:57:34;160.23;;;22.70;;
18689;SDS011;9782;52.930;15.562;2023-01-20T09:00:02;128.80;;;21.03;;
18689;SDS011;9782;52.930;15.562;2023-01-20T09:02:30;136.23;;;16.27;;
18689;SDS011;9782;52.930;15.562;2023-01-20T09:04:57;115.70;;;15.87;;
18689;SDS011;9782;52.930;15.562;2023-01-20T09:07:24;132.90;;;15.53;;
18689;SDS011;9782;52.930;15.562;2023-01-20T09:09:51;97.60;;;26.83;;
18689;SDS011;9782;52.930;15.562;2023-01-20T09:12:18;183.43;;;53.80;;
18689;SDS011;9782;52.930;15.562;2023-01-20T09:14:46;122.17;;;36.53;;
18689;SDS011;9782;52.930;15.562;2023-01-20T09:17:13;134.30;;;26.80;;
18689;SDS011;9782;52.930;15.562;2023-01-20T09:19:39;84.67;;;19.33;;
18689;SDS011;9782;52.930;15.562;2023-01-20T09:22:06;91.27;;;19.90;;
18689;SDS011;9782;52.930;15.562;2023-01-20T09:24:33;117.27;;;15.70;;
18689;SDS011;9782;52.930;15.562;2023-01-20T09:27:00;99.07;;;16.13;;
18689;SDS011;9782;52.930;15.562;2023-01-20T09:29:27;106.13;;;17.47;;
18689;SDS011;9782;52.930;15.562;2023-01-20T09:31:55;116.90;;;27.07;;
18689;SDS011;9782;52.930;15.562;2023-01-20T09:34:23;150.07;;;16.07;;
18689;SDS011;9782;52.930;15.562;2023-01-20T09:36:51;115.60;;;14.77;;
18689;SDS011;9782;52.930;15.562;2023-01-20T09:39:19;115.97;;;14.23;;
18689;SDS011;9782;52.930;15.562;2023-01-20T09:42:10;114.10;;;14.60;;
18689;SDS011;9782;52.930;15.562;2023-01-20T09:45:08;122.27;;;17.97;;
18689;SDS011;9782;52.930;15.562;2023-01-20T09:47:48;68.13;;;14.90;;
18689;SDS011;9782;52.930;15.562;2023-01-20T09:50:21;116.57;;;17.07;;
18689;SDS011;9782;52.930;15.562;2023-01-20T09:53:32;101.20;;;12.77;;
18689;SDS011;9782;52.930;15.562;2023-01-20T09:56:07;128.10;;;15.00;;
18689;SDS011;9782;52.930;15.562;2023-01-20T09:58:37;108.10;;;12.37;;
18689;SDS011;9782;52.930;15.562;2023-01-20T10:01:11;119.93;;;14.33;;
18689;SDS011;9782;52.930;15.562;2023-01-20T10:03:44;80.57;;;11.17;;
18689;SDS011;9782;52.930;15.562;2023-01-20T10:06:18;77.83;;;10.80;;
18689;SDS011;9782;52.930;15.562;2023-01-20T10:08:55;46.20;;;9.93;;
18689;SDS011;9782;52.930;15.562;2023-01-20T10:11:24;64.20;;;11.10;;
18689;SDS011;9782;52.930;15.562;2023-01-20T10:13:55;56.63;;;10.00;;
18689;SDS011;9782;52.930;15.562;2023-01-20T10:16:32;81.30;;;11.13;;
18689;SDS011;9782;52.930;15.562;2023-01-20T10:19:09;58.73;;;10.13;;
18689;SDS011;9782;52.930;15.562;2023-01-20T10:21:40;64.03;;;11.00;;
18689;SDS011;9782;52.930;15.562;2023-01-20T10:24:11;61.33;;;11.03;;
18689;SDS011;9782;52.930;15.562;2023-01-20T10:26:45;71.33;;;11.10;;
18689;SDS011;9782;52.930;15.562;2023-01-20T10:29:19;63.97;;;11.60;;
18689;SDS011;9782;52.930;15.562;2023-01-20T10:31:56;70.30;;;11.07;;
18689;SDS011;9782;52.930;15.562;2023-01-20T10:34:28;51.63;;;12.40;;
18689;SDS011;9782;52.930;15.562;2023-01-20T10:37:05;81.60;;;12.20;;
18689;SDS011;9782;52.930;15.562;2023-01-20T10:39:37;87.07;;;11.97;;
18689;SDS011;9782;52.930;15.562;2023-01-20T10:42:12;65.67;;;12.17;;
18689;SDS011;9782;52.930;15.562;2023-01-20T10:44:41;65.87;;;11.43;;
18689;SDS011;9782;52.930;15.562;2023-01-20T10:47:13;100.53;;;13.20;;
18689;SDS011;9782;52.930;15.562;2023-01-20T10:50:00;61.13;;;12.80;;
18689;SDS011;9782;52.930;15.562;2023-01-20T10:52:47;68.03;;;12.30;;
18689;SDS011;9782;52.930;15.562;2023-01-20T10:55:37;66.30;;;11.27;;
18689;SDS011;9782;52.930;15.562;2023-01-20T10:58:15;56.20;;;10.93;;
18689;SDS011;9782;52.930;15.562;2023-01-20T11:00:47;41.97;;;9.83;;
18689;SDS011;9782;52.930;15.562;2023-01-20T11:03:16;42.83;;;12.50;;
18689;SDS011;9782;52.930;15.562;2023-01-20T11:05:47;44.40;;;11.03;;
18689;SDS011;9782;52.930;15.562;2023-01-20T11:08:17;65.17;;;12.43;;
18689;SDS011;9782;52.930;15.562;2023-01-20T11:10:48;46.53;;;11.87;;
18689;SDS011;9782;52.930;15.562;2023-01-20T11:13:19;58.60;;;11.07;;
18689;SDS011;9782;52.930;15.562;2023-01-20T11:15:46;40.77;;;11.97;;
18689;SDS011;9782;52.930;15.562;2023-01-20T11:18:19;49.33;;;12.03;;
18689;SDS011;9782;52.930;15.562;2023-01-20T11:20:50;60.90;;;12.77;;
18689;SDS011;9782;52.930;15.562;2023-01-20T11:23:20;55.03;;;12.13;;
18689;SDS011;9782;52.930;15.562;2023-01-20T11:25:54;56.10;;;15.10;;
18689;SDS011;9782;52.930;15.562;2023-01-20T11:28:22;61.37;;;19.67;;
18689;SDS011;9782;52.930;15.562;2023-01-20T11:30:50;39.60;;;13.37;;
18689;SDS011;9782;52.930;15.562;2023-01-20T11:33:19;50.13;;;16.90;;
18689;SDS011;9782;52.930;15.562;2023-01-20T11:35:59;46.90;;;14.27;;
18689;SDS011;9782;52.930;15.562;2023-01-20T11:38:28;47.47;;;12.27;;
18689;SDS011;9782;52.930;15.562;2023-01-20T11:40:56;38.17;;;10.17;;
18689;SDS011;9782;52.930;15.562;2023-01-20T11:43:27;34.60;;;11.17;;
18689;SDS011;9782;52.930;15.562;2023-01-20T11:46:08;64.47;;;12.33;;
18689;SDS011;9782;52.930;15.562;2023-01-20T11:48:36;45.53;;;14.00;;
18689;SDS011;9782;52.930;15.562;2023-01-20T11:51:12;45.03;;;12.40;;
18689;SDS011;9782;52.930;15.562;2023-01-20T11:53:46;45.03;;;13.40;;
18689;SDS011;9782;52.930;15.562;2023-01-20T11:56:14;39.60;;;12.83;;
18689;SDS011;9782;52.930;15.562;2023-01-20T11:58:48;103.03;;;39.00;;
18689;SDS011;9782;52.930;15.562;2023-01-20T12:01:20;55.30;;;19.60;;
18689;SDS011;9782;52.930;15.562;2023-01-20T12:04:05;45.47;;;13.10;;
18689;SDS011;9782;52.930;15.562;2023-01-20T12:06:54;47.93;;;17.43;;
18689;SDS011;9782;52.930;15.562;2023-01-20T12:09:26;56.20;;;19.43;;
18689;SDS011;9782;52.930;15.562;2023-01-20T12:12:00;80.93;;;24.93;;
18689;SDS011;9782;52.930;15.562;2023-01-20T12:14:30;61.70;;;22.37;;
18689;SDS011;9782;52.930;15.562;2023-01-20T12:17:05;34.57;;;15.17;;
18689;SDS011;9782;52.930;15.562;2023-01-20T12:19:43;37.63;;;13.43;;
18689;SDS011;9782;52.930;15.562;2023-01-20T12:22:22;45.33;;;15.07;;
18689;SDS011;9782;52.930;15.562;2023-01-20T12:24:54;37.90;;;13.17;;
18689;SDS011;9782;52.930;15.562;2023-01-20T12:27:35;25.97;;;9.83;;
18689;SDS011;9782;52.930;15.562;2023-01-20T12:30:14;35.27;;;11.93;;
18689;SDS011;9782;52.930;15.562;2023-01-20T12:32:53;31.80;;;12.63;;
18689;SDS011;9782;52.930;15.562;2023-01-20T12:35:21;40.47;;;13.63;;
18689;SDS011;9782;52.930;15.562;2023-01-20T12:37:54;45.80;;;13.43;;
18689;SDS011;9782;52.930;15.562;2023-01-20T12:40:25;54.93;;;18.00;;
18689;SDS011;9782;52.930;15.562;2023-01-20T12:45:58;56.67;;;12.33;;
18689;SDS011;9782;52.930;15.562;2023-01-20T12:48:41;57.03;;;19.03;;
18689;SDS011;9782;52.930;15.562;2023-01-20T12:51:27;62.10;;;18.30;;
18689;SDS011;9782;52.930;15.562;2023-01-20T12:54:26;48.47;;;13.93;;
18689;SDS011;9782;52.930;15.562;2023-01-20T12:57:16;102.20;;;32.17;;
18689;SDS011;9782;52.930;15.562;2023-01-20T12:59:52;82.13;;;22.20;;
18689;SDS011;9782;52.930;15.562;2023-01-20T13:02:48;99.23;;;30.93;;
18689;SDS011;9782;52.930;15.562;2023-01-20T13:05:39;69.60;;;13.80;;
18689;SDS011;9782;52.930;15.562;2023-01-20T13:08:28;83.83;;;22.00;;
18689;SDS011;9782;52.930;15.562;2023-01-20T13:11:05;79.53;;;17.90;;
18689;SDS011;9782;52.930;15.562;2023-01-20T13:13:43;74.20;;;13.07;;
18689;SDS011;9782;52.930;15.562;2023-01-20T13:16:16;49.73;;;14.20;;
18689;SDS011;9782;52.930;15.562;2023-01-20T13:18:55;53.23;;;14.77;;
18689;SDS011;9782;52.930;15.562;2023-01-20T13:21:28;55.93;;;13.20;;
18689;SDS011;9782;52.930;15.562;2023-01-20T13:23:57;66.57;;;18.57;;
18689;SDS011;9782;52.930;15.562;2023-01-20T13:26:27;59.80;;;20.70;;
18689;SDS011;9782;52.930;15.562;2023-01-20T13:28:56;55.03;;;15.73;;
18689;SDS011;9782;52.930;15.562;2023-01-20T13:31:28;56.27;;;13.23;;
18689;SDS011;9782;52.930;15.562;2023-01-20T13:39:48;43.60;;;12.70;;
18689;SDS011;9782;52.930;15.562;2023-01-20T13:42:27;38.17;;;12.30;;
18689;SDS011;9782;52.930;15.562;2023-01-20T13:47:49;50.10;;;12.97;;
18689;SDS011;9782;52.930;15.562;2023-01-20T13:50:21;30.03;;;10.97;;
18689;SDS011;9782;52.930;15.562;2023-01-20T13:53:00;42.87;;;12.63;;
18689;SDS011;9782;52.930;15.562;2023-01-20T13:55:48;46.10;;;14.10;;
18689;SDS011;9782;52.930;15.562;2023-01-20T13:58:24;36.80;;;12.30;;
18689;SDS011;9782;52.930;15.562;2023-01-20T14:00:54;46.70;;;13.47;;
18689;SDS011;9782;52.930;15.562;2023-01-20T14:03:23;47.60;;;12.67;;
18689;SDS011;9782;52.930;15.562;2023-01-20T14:05:56;63.67;;;12.80;;
18689;SDS011;9782;52.930;15.562;2023-01-20T14:08:27;48.07;;;12.57;;
18689;SDS011;9782;52.930;15.562;2023-01-20T14:11:03;36.57;;;12.40;;
18689;SDS011;9782;52.930;15.562;2023-01-20T14:13:38;36.07;;;11.07;;
18689;SDS011;9782;52.930;15.562;2023-01-20T14:16:14;32.50;;;11.07;;
18689;SDS011;9782;52.930;15.562;2023-01-20T14:18:43;29.37;;;11.20;;
18689;SDS011;9782;52.930;15.562;2023-01-20T14:21:14;39.47;;;11.43;;
18689;SDS011;9782;52.930;15.562;2023-01-20T14:23:44;35.67;;;11.57;;
18689;SDS011;9782;52.930;15.562;2023-01-20T14:26:11;36.67;;;11.20;;
18689;SDS011;9782;52.930;15.562;2023-01-20T14:28:43;34.07;;;10.30;;
18689;SDS011;9782;52.930;15.562;2023-01-20T14:31:12;31.67;;;11.60;;
18689;SDS011;9782;52.930;15.562;2023-01-20T14:33:42;31.60;;;10.13;;
18689;SDS011;9782;52.930;15.562;2023-01-20T14:36:12;42.03;;;10.73;;
18689;SDS011;9782;52.930;15.562;2023-01-20T14:38:41;32.03;;;10.97;;
18689;SDS011;9782;52.930;15.562;2023-01-20T14:41:30;25.67;;;9.57;;
18689;SDS011;9782;52.930;15.562;2023-01-20T14:44:01;26.20;;;11.20;;
18689;SDS011;9782;52.930;15.562;2023-01-20T14:46:29;41.10;;;11.60;;
18689;SDS011;9782;52.930;15.562;2023-01-20T14:48:57;37.97;;;11.40;;
18689;SDS011;9782;52.930;15.562;2023-01-20T14:51:25;33.23;;;11.90;;
18689;SDS011;9782;52.930;15.562;2023-01-20T14:56:54;30.00;;;9.87;;
18689;SDS011;9782;52.930;15.562;2023-01-20T14:59:23;24.73;;;9.97;;
18689;SDS011;9782;52.930;15.562;2023-01-20T15:01:51;34.03;;;13.10;;